Stella Polaris — PEBD — position and weather

sailwx.info

Track history (hours):
 
Tides and Currents Weather Stations Pressure Air Temp Water Temp Dewpoint Dewpoint Depression Visibility Wind Speed Wind Dir Waves Ship Positions

Stella Polaris

Last reported at 2015-May-06 23:28 UTC. Time now 2015-May-07 04:37 UTC.
Position N 51°58' E 003°19'.

Length 117 m; draft 7.8 m.

Type: Ship (hazmat cat A). MMSI: 245911000.

Date/timePositionNaut miles runAvg speedWind from/ knotsBaromVisibWave heightAir tempDewpointWater temp
2015-May-06 23:28N 51°58' E 003°19'42710.6
2015-May-05 07:18N 57°49' E 010°23'1313.0
2015-May-05 06:19N 57°47' E 010°47'1113.8
2015-May-05 05:33N 57°40' E 011°02'1313.5
2015-May-05 04:33N 57°31' E 011°20'1413.7
2015-May-05 03:33N 57°19' E 011°32'1413.5
2015-May-05 02:33N 57°06' E 011°40'1313.2
2015-May-05 01:33N 56°54' E 011°49'1212.6
2015-May-05 00:33N 56°41' E 011°50'12512.4
2015-May-04 14:27N 54°39' E 011°01'1314.1
2015-May-04 13:33N 54°33' E 011°20'1413.7
2015-May-04 12:33N 54°28' E 011°41'1313.0
2015-May-04 11:33N 54°26' E 012°03'9912.3
2015-May-04 03:33N 55°21' E 014°26'1412.7
2015-May-04 02:26N 55°30' E 014°46'1113.0
2015-May-04 01:33N 55°35' E 015°04'1313.0
2015-May-04 00:31N 55°42' E 015°24'35313.0
2015-May-02 21:24N 59°39' E 023°33'8812.8
2015-May-02 14:29N 60°09' E 026°20'1111.7
2015-May-02 13:33N 60°18' E 026°33'1312.5
2015-May-02 12:33N 60°25' E 026°54'1 1.2
2015-May-02 11:30N 60°26' E 026°55'0 0.0
2015-May-02 10:33N 60°26' E 026°55'0 0.0
2015-May-02 09:29N 60°26' E 026°55'0 0.0
2015-May-02 08:29N 60°26' E 026°55'0 0.0
2015-May-02 07:32N 60°26' E 026°55'0 0.0
2015-May-02 06:29N 60°26' E 026°55'0 0.0
2015-May-02 05:32N 60°26' E 026°55'0 0.0
2015-May-02 04:32N 60°26' E 026°55'0 0.0
2015-May-02 03:29N 60°26' E 026°55'0 0.0
2015-May-02 02:32N 60°26' E 026°55'0 0.0
2015-May-02 01:32N 60°26' E 026°55'0 0.0
2015-May-02 00:32N 60°26' E 026°55'0 0.0
2015-May-01 23:20N 60°26' E 026°55'0 0.0
2015-May-01 22:32N 60°26' E 026°55'0 0.0
2015-May-01 21:28N 60°26' E 026°55'0 0.0
2015-May-01 20:31N 60°26' E 026°55'0 0.0
2015-May-01 19:31N 60°26' E 026°55'0 0.0
2015-May-01 18:28N 60°26' E 026°55'0 0.0
2015-May-01 17:31N 60°26' E 026°55'0 0.0
2015-May-01 16:31N 60°26' E 026°55'0 0.0
2015-May-01 15:28N 60°26' E 026°55'0 0.0
2015-May-01 14:31N 60°26' E 026°55'0 0.0
2015-May-01 13:31N 60°26' E 026°55'0 0.0
2015-May-01 12:31N 60°26' E 026°55'0 0.0
2015-May-01 11:32N 60°26' E 026°55'0 0.0
2015-May-01 10:32N 60°26' E 026°55'0 0.0
2015-May-01 09:32N 60°26' E 026°55'0 0.0
2015-May-01 08:32N 60°26' E 026°55'0 0.0
2015-May-01 07:32N 60°26' E 026°55'0 0.0
2015-May-01 06:32N 60°26' E 026°55'0 0.0
2015-May-01 05:29N 60°26' E 026°55'0 0.0
2015-May-01 04:32N 60°26' E 026°55'0 0.0
2015-May-01 03:32N 60°26' E 026°55'0 0.0
2015-May-01 02:32N 60°26' E 026°55'0 0.0
2015-May-01 01:29N 60°26' E 026°55'0 0.0
2015-May-01 00:32N 60°26' E 026°55'0 0.0
2015-Apr-30 23:32N 60°26' E 026°55'1 1.1
2015-Apr-30 22:33N 60°25' E 026°54'1413.6
2015-Apr-30 21:33N 60°17' E 026°31'8 8.4
2015-Apr-30 20:33N 60°10' E 026°22'7 7.2
2015-Apr-30 19:33N 60°04' E 026°16'5213.0
2015-Apr-30 15:33N 59°45' E 024°39'3113.8
2015-Apr-30 13:16N 59°35' E 023°40'1014.1
2015-Apr-30 12:32N 59°32' E 023°20'5513.4
2015-Apr-30 08:25N 59°29' E 021°32'  
2015-Apr-28 01:06N 55°40' E 015°33'814.0
2015-Apr-28 00:34N 55°37' E 015°21'1613.8
2015-Apr-27 23:24N 55°29' E 014°56'1213.9
2015-Apr-27 22:33N 55°23' E 014°38'1414.0
2015-Apr-27 21:33N 55°12' E 014°22'4113.6
2015-Apr-27 18:33N 55°12' E 013°11'1414.1
2015-Apr-27 17:33N 55°16' E 012°47'1111.0
2015-Apr-27 16:33N 55°26' E 012°41'1312.6
2015-Apr-27 15:33N 55°37' E 012°53'1212.0
2015-Apr-27 14:33N 55°48' E 012°47'1413.8
2015-Apr-27 13:33N 56°01' E 012°40'1212.5
2015-Apr-27 12:34N 56°10' E 012°23'1413.9
2015-Apr-27 11:33N 56°18' E 012°03'1814.0
2015-Apr-27 10:17N 56°36' E 011°56'1014.0
2015-Apr-27 09:33N 56°45' E 011°52'1414.1
2015-Apr-27 08:33N 56°59' E 011°43'1413.4
2015-Apr-27 07:32N 57°12' E 011°35'1313.4
2015-Apr-27 06:33N 57°24' E 011°26'1313.0
2015-Apr-27 05:33N 57°34' E 011°11'1413.9
2015-Apr-27 04:34N 57°43' E 010°52'  
Track history (hours):
 
Tides and Currents Weather Stations Pressure Air Temp Water Temp Dewpoint Dewpoint Depression Visibility Wind Speed Wind Dir Waves Ship Positions

Stella Polaris

Last reported at 2015-May-06 23:28 UTC. Time now 2015-May-07 04:37 UTC.
Position N 51°58' E 003°19'.

Length 117 m; draft 7.8 m.

Type: Ship (hazmat cat A). MMSI: 245911000.

Date/timePositionNaut miles runAvg speedWind from/ knotsBaromVisibWave heightAir tempDewpointWater temp
2015-May-06 23:28N 51°58' E 003°19'42710.6
2015-May-05 07:18N 57°49' E 010°23'1313.0
2015-May-05 06:19N 57°47' E 010°47'1113.8
2015-May-05 05:33N 57°40' E 011°02'1313.5
2015-May-05 04:33N 57°31' E 011°20'1413.7
2015-May-05 03:33N 57°19' E 011°32'1413.5
2015-May-05 02:33N 57°06' E 011°40'1313.2
2015-May-05 01:33N 56°54' E 011°49'1212.6
2015-May-05 00:33N 56°41' E 011°50'12512.4
2015-May-04 14:27N 54°39' E 011°01'1314.1
2015-May-04 13:33N 54°33' E 011°20'1413.7
2015-May-04 12:33N 54°28' E 011°41'1313.0
2015-May-04 11:33N 54°26' E 012°03'9912.3
2015-May-04 03:33N 55°21' E 014°26'1412.7
2015-May-04 02:26N 55°30' E 014°46'1113.0
2015-May-04 01:33N 55°35' E 015°04'1313.0
2015-May-04 00:31N 55°42' E 015°24'35313.0
2015-May-02 21:24N 59°39' E 023°33'8812.8
2015-May-02 14:29N 60°09' E 026°20'1111.7
2015-May-02 13:33N 60°18' E 026°33'1312.5
2015-May-02 12:33N 60°25' E 026°54'1 1.2
2015-May-02 11:30N 60°26' E 026°55'0 0.0
2015-May-02 10:33N 60°26' E 026°55'0 0.0
2015-May-02 09:29N 60°26' E 026°55'0 0.0
2015-May-02 08:29N 60°26' E 026°55'0 0.0
2015-May-02 07:32N 60°26' E 026°55'0 0.0
2015-May-02 06:29N 60°26' E 026°55'0 0.0
2015-May-02 05:32N 60°26' E 026°55'0 0.0
2015-May-02 04:32N 60°26' E 026°55'0 0.0
2015-May-02 03:29N 60°26' E 026°55'0 0.0
2015-May-02 02:32N 60°26' E 026°55'0 0.0
2015-May-02 01:32N 60°26' E 026°55'0 0.0
2015-May-02 00:32N 60°26' E 026°55'0 0.0
2015-May-01 23:20N 60°26' E 026°55'0 0.0
2015-May-01 22:32N 60°26' E 026°55'0 0.0
2015-May-01 21:28N 60°26' E 026°55'0 0.0
2015-May-01 20:31N 60°26' E 026°55'0 0.0
2015-May-01 19:31N 60°26' E 026°55'0 0.0
2015-May-01 18:28N 60°26' E 026°55'0 0.0
2015-May-01 17:31N 60°26' E 026°55'0 0.0
2015-May-01 16:31N 60°26' E 026°55'0 0.0
2015-May-01 15:28N 60°26' E 026°55'0 0.0
2015-May-01 14:31N 60°26' E 026°55'0 0.0
2015-May-01 13:31N 60°26' E 026°55'0 0.0
2015-May-01 12:31N 60°26' E 026°55'0 0.0
2015-May-01 11:32N 60°26' E 026°55'0 0.0
2015-May-01 10:32N 60°26' E 026°55'0 0.0
2015-May-01 09:32N 60°26' E 026°55'0 0.0
2015-May-01 08:32N 60°26' E 026°55'0 0.0
2015-May-01 07:32N 60°26' E 026°55'0 0.0
2015-May-01 06:32N 60°26' E 026°55'0 0.0
2015-May-01 05:29N 60°26' E 026°55'0 0.0
2015-May-01 04:32N 60°26' E 026°55'0 0.0
2015-May-01 03:32N 60°26' E 026°55'0 0.0
2015-May-01 02:32N 60°26' E 026°55'0 0.0
2015-May-01 01:29N 60°26' E 026°55'0 0.0
2015-May-01 00:32N 60°26' E 026°55'0 0.0
2015-Apr-30 23:32N 60°26' E 026°55'1 1.1
2015-Apr-30 22:33N 60°25' E 026°54'1413.6
2015-Apr-30 21:33N 60°17' E 026°31'8 8.4
2015-Apr-30 20:33N 60°10' E 026°22'7 7.2
2015-Apr-30 19:33N 60°04' E 026°16'5213.0
2015-Apr-30 15:33N 59°45' E 024°39'3113.8
2015-Apr-30 13:16N 59°35' E 023°40'1014.1
2015-Apr-30 12:32N 59°32' E 023°20'5513.4
2015-Apr-30 08:25N 59°29' E 021°32'  
2015-Apr-28 01:06N 55°40' E 015°33'814.0
2015-Apr-28 00:34N 55°37' E 015°21'1613.8
2015-Apr-27 23:24N 55°29' E 014°56'1213.9
2015-Apr-27 22:33N 55°23' E 014°38'1414.0
2015-Apr-27 21:33N 55°12' E 014°22'4113.6
2015-Apr-27 18:33N 55°12' E 013°11'1414.1
2015-Apr-27 17:33N 55°16' E 012°47'1111.0
2015-Apr-27 16:33N 55°26' E 012°41'1312.6
2015-Apr-27 15:33N 55°37' E 012°53'1212.0
2015-Apr-27 14:33N 55°48' E 012°47'1413.8
2015-Apr-27 13:33N 56°01' E 012°40'1212.5
2015-Apr-27 12:34N 56°10' E 012°23'1413.9
2015-Apr-27 11:33N 56°18' E 012°03'1814.0
2015-Apr-27 10:17N 56°36' E 011°56'1014.0
2015-Apr-27 09:33N 56°45' E 011°52'1414.1
2015-Apr-27 08:33N 56°59' E 011°43'1413.4
2015-Apr-27 07:32N 57°12' E 011°35'1313.4
2015-Apr-27 06:33N 57°24' E 011°26'1313.0
2015-Apr-27 05:33N 57°34' E 011°11'1413.9
2015-Apr-27 04:34N 57°43' E 010°52'  

Dump ship's entire track history